createdAt,value
2023-04-14T00:01:43.370Z,100214.34
2023-04-14T00:04:15.102Z,100229.50
2023-04-14T00:06:46.734Z,100222.41
2023-04-14T00:09:18.542Z,100222.63
2023-04-14T00:11:49.999Z,100228.31
2023-04-14T00:14:21.828Z,100234.22
2023-04-14T00:16:53.416Z,100233.38
2023-04-14T00:19:25.257Z,100235.97
2023-04-14T00:21:56.729Z,100244.75
2023-04-14T00:24:28.531Z,100248.59
2023-04-14T00:26:59.988Z,100247.34
2023-04-14T00:29:31.481Z,100257.53
2023-04-14T00:32:02.974Z,100249.97
2023-04-14T00:34:34.486Z,100254.25
2023-04-14T00:37:05.956Z,100243.19
2023-04-14T00:39:37.800Z,100248.09
2023-04-14T00:42:09.274Z,100250.13
2023-04-14T00:44:41.155Z,100252.19
2023-04-14T00:47:12.616Z,100248.50
2023-04-14T00:49:44.529Z,100245.25
2023-04-14T00:52:16.000Z,100245.47
2023-04-14T00:54:47.494Z,100254.25
2023-04-14T00:57:18.985Z,100250.34
2023-04-14T00:59:50.772Z,100246.66
2023-04-14T01:02:22.442Z,100246.47
2023-04-14T01:04:54.975Z,100247.47
2023-04-14T01:07:26.584Z,100248.31
2023-04-14T01:09:58.423Z,100250.97
2023-04-14T01:12:29.950Z,100255.03
2023-04-14T01:15:01.660Z,100255.03
2023-04-14T01:17:33.149Z,100253.63
2023-04-14T01:20:05.167Z,100246.06
2023-04-14T01:22:36.663Z,100244.66
2023-04-14T01:25:08.178Z,100248.94
2023-04-14T01:27:39.672Z,100251.38
2023-04-14T01:30:11.460Z,100250.13
2023-04-14T01:32:43.010Z,100246.84
2023-04-14T01:35:14.915Z,100241.31
2023-04-14T01:37:46.420Z,100250.25
2023-04-14T01:40:18.235Z,100250.66
2023-04-14T01:42:49.704Z,100237.38
2023-04-14T01:45:21.420Z,100239.63
2023-04-14T01:47:52.945Z,100244.72
2023-04-14T01:50:24.920Z,100242.66
2023-04-14T01:52:56.382Z,100247.53
2023-04-14T01:55:28.174Z,100245.47
2023-04-14T01:57:59.652Z,100247.09
2023-04-14T02:00:31.172Z,100247.91
2023-04-14T02:03:02.765Z,100247.09
2023-04-14T02:05:34.319Z,100243.41
2023-04-14T02:08:05.778Z,100253.81
2023-04-14T02:10:37.809Z,100254.63
2023-04-14T02:13:09.270Z,100246.66
2023-04-14T02:15:40.991Z,100250.34
2023-04-14T02:18:12.810Z,100249.09
2023-04-14T02:20:44.282Z,100251.94
2023-04-14T02:23:15.957Z,100254.38
2023-04-14T02:25:47.419Z,100268.25
2023-04-14T02:28:19.431Z,100266.19
2023-04-14T02:30:50.902Z,100271.28
2023-04-14T02:33:22.757Z,100269.81
2023-04-14T02:35:54.210Z,100267.16
2023-04-14T02:38:26.023Z,100271.66
2023-04-14T02:40:57.495Z,100264.66
2023-04-14T02:43:28.988Z,100261.56
2023-04-14T02:46:00.501Z,100277.06
2023-04-14T02:48:32.062Z,100275.00
2023-04-14T02:51:03.535Z,100266.00
2023-04-14T02:53:35.041Z,100276.41
2023-04-14T02:56:06.513Z,100269.25
2023-04-14T02:58:38.357Z,100276.19
2023-04-14T03:01:09.914Z,100271.91
2023-04-14T03:03:41.754Z,100268.00
2023-04-14T03:06:13.220Z,100267.19
2023-04-14T03:08:44.836Z,100268.44
2023-04-14T03:11:16.302Z,100269.47
2023-04-14T03:13:48.127Z,100271.31
2023-04-14T03:16:19.655Z,100271.31
2023-04-14T03:18:51.438Z,100267.69
2023-04-14T03:21:22.888Z,100266.44
2023-04-14T03:23:54.676Z,100262.44
2023-04-14T03:26:26.115Z,100262.88
2023-04-14T03:28:57.967Z,100270.69
2023-04-14T03:31:29.506Z,100261.31
2023-04-14T03:34:01.325Z,100257.25
2023-04-14T03:36:32.797Z,100265.03
2023-04-14T03:39:04.640Z,100268.13
2023-04-14T03:41:36.142Z,100264.28
2023-04-14T03:44:08.015Z,100262.66
2023-04-14T03:46:39.520Z,100265.53
2023-04-14T03:49:11.713Z,100267.22
2023-04-14T03:51:43.202Z,100261.53
2023-04-14T03:54:15.060Z,100260.34
2023-04-14T03:56:46.514Z,100258.44
2023-04-14T03:59:18.271Z,100268.03
2023-04-14T04:01:49.806Z,100261.09
2023-04-14T04:04:21.727Z,100264.78
2023-04-14T04:06:53.277Z,100270.25
2023-04-14T04:09:25.105Z,100262.94
2023-04-14T04:11:56.565Z,100261.47
2023-04-14T04:14:28.413Z,100260.44
2023-04-14T04:16:59.959Z,100260.22
2023-04-14T04:19:31.448Z,100263.69
2023-04-14T04:22:02.920Z,100252.69
2023-04-14T04:24:34.439Z,100260.22
2023-04-14T04:27:09.868Z,100259.41
2023-04-14T04:29:46.700Z,100261.25
2023-04-14T04:32:18.220Z,100262.06
2023-04-14T04:34:50.116Z,100258.38
2023-04-14T04:37:21.582Z,100263.47
2023-04-14T04:39:53.230Z,100246.72
2023-04-14T04:42:24.711Z,100252.41
2023-04-14T04:44:56.521Z,100250.56
2023-04-14T04:47:28.133Z,100254.63
2023-04-14T04:50:00.004Z,100254.41
2023-04-14T04:52:31.473Z,100253.75
2023-04-14T04:55:03.303Z,100254.59
2023-04-14T04:57:34.769Z,100257.63
2023-04-14T05:00:06.545Z,100258.00
2023-04-14T05:02:38.057Z,100259.41
2023-04-14T05:05:09.962Z,100255.72
2023-04-14T05:07:41.447Z,100265.91
2023-04-14T05:10:13.405Z,100262.44
2023-04-14T05:12:44.899Z,100261.19
2023-04-14T05:15:16.551Z,100266.44
2023-04-14T05:17:48.028Z,100268.44
2023-04-14T05:20:19.844Z,100268.81
2023-04-14T05:22:51.317Z,100273.91
2023-04-14T05:25:23.093Z,100274.28
2023-04-14T05:27:54.962Z,100275.72
2023-04-14T05:30:26.456Z,100272.84
2023-04-14T05:32:58.381Z,100265.44
2023-04-14T05:35:29.862Z,100260.56
2023-04-14T05:38:01.691Z,100200.09
2023-04-14T05:40:33.177Z,100265.28
2023-04-14T05:43:04.666Z,100275.09
2023-04-14T05:45:36.130Z,100265.72
2023-04-14T05:48:08.060Z,100261.44
2023-04-14T05:50:39.531Z,100271.63
2023-04-14T05:53:11.339Z,100272.25
2023-04-14T05:55:42.806Z,100283.47
2023-04-14T05:58:14.576Z,100285.03
2023-04-14T06:00:46.037Z,100272.69
2023-04-14T06:03:17.985Z,100265.00
2023-04-14T06:05:49.605Z,100268.84
2023-04-14T06:08:21.450Z,100266.09
2023-04-14T06:10:53.026Z,100268.34
2023-04-14T06:13:24.713Z,100272.41
2023-04-14T06:18:27.793Z,100270.63
2023-04-14T06:20:59.267Z,100134.19
2023-04-14T06:23:30.765Z,100274.25
2023-04-14T06:26:02.266Z,100275.78
2023-04-14T06:28:33.742Z,100278.44
2023-04-14T06:31:05.230Z,100280.47
2023-04-14T06:33:37.139Z,100275.50
2023-04-14T06:36:08.620Z,100283.84
2023-04-14T06:38:40.120Z,100281.50
2023-04-14T06:41:11.588Z,100281.41
2023-04-14T06:43:43.406Z,100283.47
2023-04-14T06:46:14.906Z,100282.59
2023-04-14T06:48:46.785Z,100284.13
2023-04-14T06:51:18.257Z,100278.25
2023-04-14T06:53:50.142Z,100274.63
2023-04-14T06:56:21.616Z,100284.56
2023-04-14T06:58:53.552Z,100285.38
2023-04-14T07:01:25.120Z,100292.69
2023-04-14T07:03:56.686Z,100286.25
2023-04-14T07:06:28.189Z,100276.84
2023-04-14T07:08:59.815Z,100282.69
2023-04-14T07:11:31.274Z,100275.44
2023-04-14T07:14:03.077Z,100271.97
2023-04-14T07:16:34.875Z,100278.69
2023-04-14T07:19:06.652Z,100277.28
2023-04-14T07:21:38.133Z,100274.97
2023-04-14T07:24:09.945Z,100279.25
2023-04-14T07:26:41.399Z,100279.03
2023-04-14T07:29:13.012Z,100280.53
2023-04-14T07:31:44.556Z,100288.44
2023-04-14T07:34:16.208Z,100281.47
2023-04-14T07:36:47.683Z,100292.25
2023-04-14T07:39:23.721Z,100298.97
2023-04-14T07:41:55.383Z,100299.31
2023-04-14T07:44:26.957Z,100305.56
2023-04-14T07:46:58.424Z,100299.88
2023-04-14T07:49:29.917Z,100299.66
2023-04-14T07:52:01.441Z,100302.91
2023-04-14T07:57:14.330Z,100313.19
2023-04-14T07:59:45.806Z,100306.69
2023-04-14T08:02:17.398Z,100308.06
2023-04-14T08:04:49.245Z,100314.47
2023-04-14T08:07:20.729Z,100305.91
2023-04-14T08:09:52.455Z,100300.59
2023-04-14T08:12:23.944Z,100300.13
2023-04-14T08:14:55.754Z,100303.91
2023-04-14T08:17:27.242Z,100297.00
2023-04-14T08:19:59.079Z,100311.38
2023-04-14T08:22:30.549Z,100307.75
2023-04-14T08:25:02.263Z,100305.94
2023-04-14T08:27:33.731Z,100306.50
2023-04-14T08:30:05.435Z,100308.84
2023-04-14T08:32:36.948Z,100297.53
2023-04-14T08:35:37.436Z,100287.50
2023-04-14T08:38:00.700Z,100294.50
2023-04-14T08:40:32.180Z,100293.09
2023-04-14T08:43:03.847Z,100290.78
2023-04-14T08:45:35.336Z,100286.97
2023-04-14T08:48:07.374Z,100280.06
2023-04-14T08:50:38.854Z,100282.97
2023-04-14T08:53:10.718Z,100278.16
2023-04-14T08:55:42.240Z,100273.75
2023-04-14T08:58:14.128Z,100270.75
2023-04-14T09:00:45.623Z,100266.59
2023-04-14T09:03:17.684Z,100273.69
2023-04-14T09:05:49.282Z,100269.91
2023-04-14T09:08:21.061Z,100275.13
2023-04-14T09:10:52.557Z,100266.69
2023-04-14T09:13:24.258Z,100270.47
2023-04-14T09:15:55.724Z,100268.38
2023-04-14T09:18:28.157Z,100270.97
2023-04-14T09:21:50.896Z,100267.53
2023-04-14T09:23:51.690Z,100273.47
2023-04-14T09:26:23.154Z,100262.19
2023-04-14T09:28:55.041Z,100270.84
2023-04-14T09:31:26.518Z,100265.97
2023-04-14T09:33:58.450Z,100267.22
2023-04-14T09:36:29.967Z,100269.66
2023-04-14T09:39:01.697Z,100265.81
2023-04-14T09:41:33.167Z,100261.63
2023-04-14T09:44:04.782Z,100257.84
2023-04-14T09:46:36.268Z,100263.91
2023-04-14T09:49:08.019Z,100260.00
2023-04-14T09:51:39.520Z,100260.16
2023-04-14T09:54:11.253Z,100254.31
2023-04-14T09:56:42.714Z,100251.94
2023-04-14T09:59:14.351Z,100255.69
2023-04-14T10:01:45.895Z,100255.66
2023-04-14T10:04:17.470Z,100265.31
2023-04-14T10:06:48.952Z,100261.63
2023-04-14T10:09:20.582Z,100250.38
2023-04-14T10:11:52.039Z,100262.28
2023-04-14T10:14:23.642Z,100256.13
2023-04-14T10:16:55.090Z,100252.16
2023-04-14T10:19:26.707Z,100253.19
2023-04-14T10:21:58.197Z,100250.38
2023-04-14T10:24:29.717Z,100246.25
2023-04-14T10:27:01.166Z,100247.06
2023-04-14T10:29:32.652Z,100244.91
2023-04-14T10:32:04.188Z,100242.00
2023-04-14T10:34:35.674Z,100245.91
2023-04-14T10:37:07.130Z,100246.25
2023-04-14T10:39:38.608Z,100237.53
2023-04-14T10:42:10.071Z,100232.94
2023-04-14T10:44:41.708Z,100235.09
2023-04-14T10:47:13.254Z,100232.50
2023-04-14T10:49:44.904Z,100228.81
2023-04-14T10:52:16.350Z,100235.03
2023-04-14T10:54:48.349Z,100227.34
2023-04-14T10:57:19.840Z,100229.75
2023-04-14T10:59:51.696Z,100230.44
2023-04-14T11:02:23.346Z,100226.59
2023-04-14T11:04:55.313Z,99824.69
2023-04-14T11:07:26.813Z,100222.31
2023-04-14T11:09:58.640Z,100226.34
2023-04-14T11:12:30.090Z,100219.06
2023-04-14T11:15:01.923Z,100223.16
2023-04-14T11:17:33.477Z,100220.81
2023-04-14T11:20:05.281Z,100218.72
2023-04-14T11:22:36.733Z,100226.72
2023-04-14T11:25:08.562Z,100229.69
2023-04-14T11:27:40.049Z,100219.72
2023-04-14T11:30:11.492Z,100227.53
2023-04-14T11:32:43.325Z,100221.78
2023-04-14T11:35:14.802Z,100220.88
2023-04-14T11:37:46.661Z,100219.88
2023-04-14T11:40:18.120Z,100229.75
2023-04-14T11:42:49.737Z,100219.63
2023-04-14T11:45:21.204Z,100216.63
2023-04-14T11:47:53.053Z,100216.13
2023-04-14T11:50:24.525Z,100219.13
2023-04-14T11:52:55.989Z,100225.75
2023-04-14T11:55:27.536Z,100226.34
2023-04-14T11:57:59.383Z,100222.81
2023-04-14T12:00:31.850Z,100227.41
2023-04-14T12:03:03.887Z,100221.19
2023-04-14T12:05:35.699Z,100216.06
2023-04-14T12:08:07.713Z,100213.06
2023-04-14T12:10:39.228Z,100210.03
2023-04-14T12:13:10.952Z,100214.59
2023-04-14T12:15:42.577Z,100212.69
2023-04-14T12:18:14.721Z,100209.25
2023-04-14T12:20:46.214Z,100205.63
2023-04-14T12:23:18.041Z,100204.28
2023-04-14T12:25:49.525Z,100204.31
2023-04-14T12:28:21.376Z,100205.41
2023-04-14T12:30:52.824Z,100207.66
2023-04-14T12:33:24.493Z,100128.59
2023-04-14T12:35:55.981Z,100188.81
2023-04-14T12:38:27.740Z,100196.03
2023-04-14T12:40:59.291Z,100187.72
2023-04-14T12:43:31.056Z,100191.22
2023-04-14T12:46:02.492Z,100188.94
2023-04-14T12:48:34.270Z,100185.84
2023-04-14T12:51:05.726Z,100186.72
2023-04-14T12:53:37.523Z,100184.81
2023-04-14T12:56:08.964Z,100175.53
2023-04-14T12:58:40.790Z,100176.25
2023-04-14T13:12:22.124Z,100170.16
2023-04-14T13:15:04.050Z,100164.63
2023-04-14T13:17:35.708Z,100165.34
2023-04-14T13:20:07.811Z,100168.59
2023-04-14T13:22:39.305Z,100162.44
2023-04-14T13:25:11.140Z,100162.81
2023-04-14T13:27:42.918Z,100154.50
2023-04-14T13:30:14.363Z,100149.19
2023-04-14T13:32:46.239Z,100145.06
2023-04-14T13:35:17.767Z,100145.13
2023-04-14T13:37:51.455Z,100138.84
2023-04-14T13:40:22.943Z,100142.47
2023-04-14T13:42:54.403Z,100143.06
2023-04-14T13:45:25.876Z,100134.63
2023-04-14T13:47:57.781Z,100136.06
2023-04-14T13:50:29.271Z,100136.13
2023-04-14T13:53:01.049Z,100134.00
2023-04-14T13:55:32.552Z,100124.03
2023-04-14T13:58:04.327Z,100129.94
2023-04-14T14:00:35.810Z,100132.44
2023-04-14T14:03:07.696Z,100128.88
2023-04-14T14:05:39.311Z,100124.53
2023-04-14T14:08:11.102Z,100128.28
2023-04-14T14:13:18.563Z,100127.69
2023-04-14T14:15:50.242Z,100126.06
2023-04-14T14:18:22.037Z,100120.09
2023-04-14T14:20:53.603Z,100124.63
2023-04-14T14:23:25.473Z,100130.16
2023-04-14T14:25:56.919Z,100128.09
2023-04-14T14:28:28.720Z,100123.94
2023-04-14T14:31:00.228Z,100122.38
2023-04-14T14:33:32.007Z,100121.72
2023-04-14T14:36:03.455Z,100117.66
2023-04-14T14:38:35.231Z,100113.00
2023-04-14T14:41:06.734Z,100120.75
2023-04-14T14:43:38.203Z,100099.22
2023-04-14T14:46:09.704Z,100102.75
2023-04-14T14:48:41.506Z,100103.72
2023-04-14T14:51:12.960Z,100105.13
2023-04-14T14:53:44.730Z,100110.66
2023-04-14T14:56:16.203Z,100094.56
2023-04-14T14:58:48.052Z,100103.13
2023-04-14T15:01:19.543Z,100095.16
2023-04-14T15:03:51.108Z,100109.09
2023-04-14T15:06:22.609Z,100101.38
2023-04-14T15:08:54.091Z,100102.91
2023-04-14T15:11:25.566Z,100095.75
2023-04-14T15:13:57.051Z,100099.06
2023-04-14T15:16:28.544Z,100108.78
2023-04-14T15:19:00.259Z,100109.59
2023-04-14T15:21:31.719Z,100110.53
2023-04-14T15:24:03.776Z,100111.78
2023-04-14T15:26:35.508Z,100115.41
2023-04-14T15:29:07.550Z,100102.75
2023-04-14T15:31:39.073Z,100111.06
2023-04-14T15:34:10.884Z,100110.16
2023-04-14T15:36:42.344Z,100114.22
2023-04-14T15:39:14.454Z,100120.28
2023-04-14T15:41:47.977Z,100111.78
2023-04-14T15:44:19.464Z,100113.72
2023-04-14T15:46:50.976Z,100116.94
2023-04-14T15:49:22.722Z,100111.75
2023-04-14T15:51:54.460Z,100111.22
2023-04-14T15:54:27.466Z,100110.22
2023-04-14T15:56:58.937Z,100116.34
2023-04-14T15:59:30.708Z,100125.13
2023-04-14T16:02:02.171Z,100127.63
2023-04-14T16:04:34.084Z,100124.91
2023-04-14T16:07:05.655Z,100129.19
2023-04-14T16:09:37.499Z,100121.59
2023-04-14T16:12:08.970Z,100130.75
2023-04-14T16:14:40.808Z,100126.53
2023-04-14T16:17:12.277Z,100134.34
2023-04-14T16:19:44.065Z,100130.81
2023-04-14T16:22:15.521Z,100126.59
2023-04-14T16:24:46.994Z,100125.78
2023-04-14T16:27:18.508Z,100125.72
2023-04-14T16:29:49.985Z,100121.72
2023-04-14T16:32:21.737Z,100118.25
2023-04-14T16:34:53.275Z,100111.97
2023-04-14T16:37:25.097Z,100113.75
2023-04-14T16:39:56.570Z,100127.63
2023-04-14T16:42:28.399Z,100123.19
2023-04-14T16:44:59.858Z,100124.97
2023-04-14T16:47:31.607Z,100123.78
2023-04-14T16:50:03.143Z,100126.22
2023-04-14T16:52:34.633Z,100120.53
2023-04-14T16:55:06.097Z,100123.50
2023-04-14T16:57:37.569Z,100116.78
2023-04-14T17:00:09.033Z,100127.34
2023-04-14T17:02:40.775Z,100122.47
2023-04-14T17:05:12.502Z,100128.75
2023-04-14T17:07:44.139Z,99973.91
2023-04-14T17:10:15.583Z,100128.22
2023-04-14T17:12:47.112Z,100129.25
2023-04-14T17:15:18.600Z,100134.03
2023-04-14T17:17:50.162Z,100135.22
2023-04-14T17:20:21.694Z,100133.00
2023-04-14T17:22:53.437Z,100131.97
2023-04-14T17:25:24.933Z,100130.72
2023-04-14T17:27:56.429Z,100124.59
2023-04-14T17:30:27.901Z,100128.28
2023-04-14T17:32:59.704Z,100129.09
2023-04-14T17:35:31.187Z,100127.09
2023-04-14T17:38:02.668Z,100123.81
2023-04-14T17:40:34.148Z,100124.22
2023-04-14T17:43:05.878Z,100123.00
2023-04-14T17:45:37.492Z,100129.34
2023-04-14T17:48:09.217Z,100125.06
2023-04-14T17:50:40.742Z,100118.13
2023-04-14T17:53:12.242Z,100118.56
2023-04-14T17:55:43.802Z,100118.72
2023-04-14T17:58:15.601Z,100118.91
2023-04-14T18:00:47.054Z,100123.59
2023-04-14T18:03:18.662Z,100120.41
2023-04-14T18:05:50.180Z,100117.47
2023-04-14T18:08:22.021Z,100121.59
2023-04-14T18:10:53.490Z,100125.66
2023-04-14T18:13:25.034Z,100126.69
2023-04-14T18:15:56.494Z,100129.59
2023-04-14T18:18:28.416Z,100119.38
2023-04-14T18:20:59.881Z,100117.69
2023-04-14T18:23:31.682Z,100123.22
2023-04-14T18:28:38.102Z,100122.63
2023-04-14T18:31:10.700Z,100134.09
2023-04-14T18:33:43.329Z,100132.69
2023-04-14T18:36:14.830Z,100131.50
2023-04-14T18:38:46.619Z,100124.34
2023-04-14T18:41:18.075Z,100135.16
2023-04-14T18:43:49.634Z,100141.06
2023-04-14T18:46:21.165Z,100133.50
2023-04-14T18:48:52.682Z,100141.06
2023-04-14T18:51:24.154Z,100134.56
2023-04-14T18:53:55.656Z,100127.03
2023-04-14T18:56:27.131Z,100116.59
2023-04-14T18:58:58.744Z,100124.13
2023-04-14T19:01:30.398Z,100129.25
2023-04-14T19:04:02.073Z,100111.72
2023-04-14T19:06:33.680Z,100107.22
2023-04-14T19:09:05.603Z,100099.88
2023-04-14T19:11:37.095Z,100107.41
2023-04-14T19:14:08.936Z,100109.03
2023-04-14T19:16:40.407Z,100101.06
2023-04-14T19:19:12.184Z,100095.09
2023-04-14T19:21:43.626Z,100100.63
2023-04-14T19:24:15.420Z,100091.84
2023-04-14T19:26:46.915Z,100084.28
2023-04-14T19:29:18.743Z,100089.97
2023-04-14T19:31:50.205Z,100078.09
2023-04-14T19:34:21.706Z,100090.19
2023-04-14T19:36:53.151Z,100086.06
2023-04-14T19:39:24.873Z,100093.81
2023-04-14T19:41:56.376Z,100101.16
2023-04-14T19:44:28.198Z,100116.03
2023-04-14T19:46:59.700Z,100118.19
2023-04-14T19:49:31.585Z,100106.94
2023-04-14T19:52:03.572Z,100108.94
2023-04-14T19:54:35.020Z,100109.59
2023-04-14T19:57:06.514Z,100101.84
2023-04-14T19:59:38.024Z,100098.06
2023-04-14T20:02:09.880Z,100068.28
2023-04-14T20:04:41.478Z,100068.28
2023-04-14T20:07:13.178Z,100051.56
2023-04-14T20:09:44.676Z,100086.66
2023-04-14T20:12:16.543Z,100085.69
2023-04-14T20:14:47.995Z,100084.28
2023-04-14T20:17:19.870Z,100081.75
2023-04-14T20:19:51.366Z,100083.31
2023-04-14T20:22:23.165Z,100086.72
2023-04-14T20:24:54.629Z,100069.44
2023-04-14T20:27:26.267Z,100087.16
2023-04-14T20:29:57.769Z,100067.03
2023-04-14T20:32:29.586Z,100056.78
2023-04-14T20:35:01.027Z,100066.44
2023-04-14T20:37:32.908Z,100053.59
2023-04-14T20:40:04.346Z,100055.81
2023-04-14T20:42:36.049Z,100055.59
2023-04-14T20:45:07.507Z,100058.25
2023-04-14T20:47:39.325Z,100058.63
2023-04-14T20:50:10.816Z,100058.47
2023-04-14T20:52:42.720Z,100049.09
2023-04-14T20:55:14.202Z,100043.78
2023-04-14T20:57:45.688Z,100021.34
2023-04-14T21:00:17.167Z,100013.16
2023-04-14T21:02:49.107Z,100033.19
2023-04-14T21:05:20.663Z,100042.53
2023-04-14T21:07:52.123Z,100046.97
2023-04-14T21:10:23.938Z,100048.59
2023-04-14T21:15:24.700Z,100038.56
2023-04-14T21:15:54.296Z,100025.38
2023-04-14T21:18:28.244Z,100011.88
2023-04-14T21:20:59.762Z,100022.88
2023-04-14T21:23:31.230Z,100016.53
2023-04-14T21:26:03.106Z,100014.69
2023-04-14T21:28:34.572Z,100020.06
2023-04-14T21:31:06.092Z,100022.13
2023-04-14T21:33:37.639Z,100003.31
2023-04-14T21:36:09.433Z,100008.19
2023-04-14T21:38:40.928Z,100014.31
2023-04-14T21:41:12.741Z,100010.03
2023-04-14T21:43:44.192Z,100001.69
2023-04-14T21:46:16.095Z,100005.09
2023-04-14T21:48:47.619Z,99996.31
2023-04-14T21:51:19.107Z,99995.94
2023-04-14T21:53:50.569Z,99994.34
2023-04-14T21:56:22.047Z,99998.53
2023-04-14T21:58:53.513Z,99994.25
2023-04-14T22:01:25.253Z,99986.22
2023-04-14T22:03:56.832Z,99981.50
2023-04-14T22:06:28.798Z,99983.13
2023-04-14T22:09:00.539Z,99983.56
2023-04-14T22:11:32.566Z,99976.19
2023-04-14T22:14:04.133Z,99984.97
2023-04-14T22:16:35.720Z,99989.75
2023-04-14T22:19:07.246Z,99988.88
2023-04-14T22:21:39.101Z,99979.94
2023-04-14T22:24:10.553Z,99973.69
2023-04-14T22:26:42.038Z,99964.91
2023-04-14T22:29:13.467Z,99970.81
2023-04-14T22:31:47.982Z,99958.94
2023-04-14T22:34:19.438Z,99972.94
2023-04-14T22:36:50.980Z,99977.66
2023-04-14T22:39:22.546Z,99969.56
2023-04-14T22:41:54.033Z,99967.50
2023-04-14T22:44:25.986Z,99973.03
2023-04-14T22:46:57.450Z,99974.66
2023-04-14T22:49:29.235Z,99979.72
2023-04-14T22:52:00.711Z,99970.59
2023-04-14T22:54:32.644Z,99979.38
2023-04-14T22:57:04.105Z,99968.00
2023-04-14T22:59:35.853Z,99975.91
2023-04-14T23:02:07.530Z,99975.91
2023-04-14T23:04:39.437Z,99966.91
2023-04-14T23:07:10.922Z,99977.31
2023-04-14T23:09:42.731Z,99974.88
2023-04-14T23:12:14.206Z,99966.91
2023-04-14T23:14:45.882Z,99970.75
2023-04-14T23:17:17.360Z,99972.13
2023-04-14T23:19:49.144Z,99973.41
2023-04-14T23:22:20.613Z,99975.25
2023-04-14T23:24:52.083Z,99973.84
2023-04-14T23:27:23.545Z,99968.09
2023-04-14T23:29:55.006Z,99964.84
2023-04-14T23:32:26.531Z,99968.69
2023-04-14T23:34:58.388Z,99966.47
2023-04-14T23:37:29.864Z,99967.63
2023-04-14T23:40:01.657Z,99969.63
2023-04-14T23:42:33.117Z,99960.94
2023-04-14T23:45:04.746Z,99964.41
2023-04-14T23:47:36.242Z,99962.34
2023-04-14T23:50:08.044Z,99961.88
2023-04-14T23:52:39.515Z,99960.19
2023-04-14T23:55:11.067Z,99962.91
2023-04-14T23:57:42.522Z,99960.25
